sensor_id;sensor_type;location;lat;lon;timestamp;P1;durP1;ratioP1;P2;durP2;ratioP2
6828;SDS011;17930;48.592;8.868;2023-06-04T00:01:31;7.23;;;5.03;;
6828;SDS011;17930;48.592;8.868;2023-06-04T00:03:58;6.30;;;4.97;;
6828;SDS011;17930;48.592;8.868;2023-06-04T00:06:25;7.20;;;4.87;;
6828;SDS011;17930;48.592;8.868;2023-06-04T00:08:52;6.33;;;5.00;;
6828;SDS011;17930;48.592;8.868;2023-06-04T00:11:18;8.00;;;5.43;;
6828;SDS011;17930;48.592;8.868;2023-06-04T00:13:47;6.30;;;4.70;;
6828;SDS011;17930;48.592;8.868;2023-06-04T00:16:14;8.87;;;5.33;;
6828;SDS011;17930;48.592;8.868;2023-06-04T00:18:40;9.27;;;5.17;;
6828;SDS011;17930;48.592;8.868;2023-06-04T00:21:07;10.67;;;5.00;;
6828;SDS011;17930;48.592;8.868;2023-06-04T00:23:34;5.97;;;4.57;;
6828;SDS011;17930;48.592;8.868;2023-06-04T00:26:01;6.70;;;4.80;;
6828;SDS011;17930;48.592;8.868;2023-06-04T00:28:27;8.70;;;4.90;;
6828;SDS011;17930;48.592;8.868;2023-06-04T00:30:56;6.63;;;5.00;;
6828;SDS011;17930;48.592;8.868;2023-06-04T00:33:23;7.30;;;4.73;;
6828;SDS011;17930;48.592;8.868;2023-06-04T00:35:49;9.03;;;5.23;;
6828;SDS011;17930;48.592;8.868;2023-06-04T00:38:16;7.70;;;5.10;;
6828;SDS011;17930;48.592;8.868;2023-06-04T00:40:43;5.50;;;4.47;;
6828;SDS011;17930;48.592;8.868;2023-06-04T00:43:09;7.17;;;4.73;;
6828;SDS011;17930;48.592;8.868;2023-06-04T00:45:40;8.83;;;5.13;;
6828;SDS011;17930;48.592;8.868;2023-06-04T00:48:09;6.53;;;5.03;;
6828;SDS011;17930;48.592;8.868;2023-06-04T00:50:36;8.10;;;4.67;;
6828;SDS011;17930;48.592;8.868;2023-06-04T00:53:05;9.13;;;5.77;;
6828;SDS011;17930;48.592;8.868;2023-06-04T00:55:31;10.43;;;5.27;;
6828;SDS011;17930;48.592;8.868;2023-06-04T00:57:58;7.00;;;5.40;;
6828;SDS011;17930;48.592;8.868;2023-06-04T01:00:26;7.90;;;5.20;;
6828;SDS011;17930;48.592;8.868;2023-06-04T01:02:53;6.60;;;4.90;;
6828;SDS011;17930;48.592;8.868;2023-06-04T01:05:26;8.50;;;4.90;;
6828;SDS011;17930;48.592;8.868;2023-06-04T01:08:00;6.50;;;4.70;;
6828;SDS011;17930;48.592;8.868;2023-06-04T01:10:27;9.03;;;5.40;;
6828;SDS011;17930;48.592;8.868;2023-06-04T01:12:54;8.63;;;5.13;;
6828;SDS011;17930;48.592;8.868;2023-06-04T01:15:21;8.33;;;5.10;;
6828;SDS011;17930;48.592;8.868;2023-06-04T01:17:48;8.07;;;5.13;;
6828;SDS011;17930;48.592;8.868;2023-06-04T01:20:26;8.60;;;5.57;;
6828;SDS011;17930;48.592;8.868;2023-06-04T01:23:15;7.60;;;5.17;;
6828;SDS011;17930;48.592;8.868;2023-06-04T01:25:54;8.97;;;5.50;;
6828;SDS011;17930;48.592;8.868;2023-06-04T01:28:23;10.00;;;5.13;;
6828;SDS011;17930;48.592;8.868;2023-06-04T01:30:52;8.03;;;5.37;;
6828;SDS011;17930;48.592;8.868;2023-06-04T01:33:21;10.23;;;5.57;;
6828;SDS011;17930;48.592;8.868;2023-06-04T01:35:50;9.93;;;5.63;;
6828;SDS011;17930;48.592;8.868;2023-06-04T01:38:17;8.70;;;5.37;;
6828;SDS011;17930;48.592;8.868;2023-06-04T01:40:44;8.00;;;5.40;;
6828;SDS011;17930;48.592;8.868;2023-06-04T01:43:12;9.47;;;6.30;;
6828;SDS011;17930;48.592;8.868;2023-06-04T01:45:39;8.80;;;5.93;;
6828;SDS011;17930;48.592;8.868;2023-06-04T01:48:05;8.33;;;5.17;;
6828;SDS011;17930;48.592;8.868;2023-06-04T01:50:32;6.83;;;5.30;;
6828;SDS011;17930;48.592;8.868;2023-06-04T01:53:01;8.07;;;5.43;;
6828;SDS011;17930;48.592;8.868;2023-06-04T01:55:27;9.00;;;5.63;;
6828;SDS011;17930;48.592;8.868;2023-06-04T01:57:58;8.00;;;5.20;;
6828;SDS011;17930;48.592;8.868;2023-06-04T02:00:25;8.90;;;5.27;;
6828;SDS011;17930;48.592;8.868;2023-06-04T02:02:53;7.97;;;5.10;;
6828;SDS011;17930;48.592;8.868;2023-06-04T02:05:21;7.90;;;5.17;;
6828;SDS011;17930;48.592;8.868;2023-06-04T02:07:48;9.30;;;6.23;;
6828;SDS011;17930;48.592;8.868;2023-06-04T02:10:16;9.43;;;5.47;;
6828;SDS011;17930;48.592;8.868;2023-06-04T02:12:54;7.43;;;5.67;;
6828;SDS011;17930;48.592;8.868;2023-06-04T02:15:22;9.20;;;5.57;;
6828;SDS011;17930;48.592;8.868;2023-06-04T02:17:49;8.50;;;5.77;;
6828;SDS011;17930;48.592;8.868;2023-06-04T02:20:16;9.57;;;5.60;;
6828;SDS011;17930;48.592;8.868;2023-06-04T02:22:43;8.57;;;5.77;;
6828;SDS011;17930;48.592;8.868;2023-06-04T02:25:10;8.03;;;5.30;;
6828;SDS011;17930;48.592;8.868;2023-06-04T02:27:38;6.97;;;5.43;;
6828;SDS011;17930;48.592;8.868;2023-06-04T02:30:05;7.80;;;5.43;;
6828;SDS011;17930;48.592;8.868;2023-06-04T02:32:33;10.37;;;6.60;;
6828;SDS011;17930;48.592;8.868;2023-06-04T02:35:01;8.83;;;5.90;;
6828;SDS011;17930;48.592;8.868;2023-06-04T02:37:28;7.70;;;5.50;;
6828;SDS011;17930;48.592;8.868;2023-06-04T02:39:55;7.47;;;5.80;;
6828;SDS011;17930;48.592;8.868;2023-06-04T02:42:22;10.03;;;5.73;;
6828;SDS011;17930;48.592;8.868;2023-06-04T02:44:50;7.07;;;5.37;;
6828;SDS011;17930;48.592;8.868;2023-06-04T02:47:17;8.33;;;5.30;;
6828;SDS011;17930;48.592;8.868;2023-06-04T02:49:44;6.90;;;5.50;;
6828;SDS011;17930;48.592;8.868;2023-06-04T02:52:11;7.87;;;5.67;;
6828;SDS011;17930;48.592;8.868;2023-06-04T02:54:39;7.80;;;5.70;;
6828;SDS011;17930;48.592;8.868;2023-06-04T02:57:06;8.50;;;5.53;;
6828;SDS011;17930;48.592;8.868;2023-06-04T02:59:33;8.13;;;5.47;;
6828;SDS011;17930;48.592;8.868;2023-06-04T03:02:02;10.63;;;5.83;;
6828;SDS011;17930;48.592;8.868;2023-06-04T03:04:28;11.83;;;5.60;;
6828;SDS011;17930;48.592;8.868;2023-06-04T03:06:59;8.60;;;5.73;;
6828;SDS011;17930;48.592;8.868;2023-06-04T03:09:28;7.23;;;5.30;;
6828;SDS011;17930;48.592;8.868;2023-06-04T03:11:56;8.17;;;5.57;;
6828;SDS011;17930;48.592;8.868;2023-06-04T03:14:25;9.67;;;5.93;;
6828;SDS011;17930;48.592;8.868;2023-06-04T03:16:58;9.00;;;5.77;;
6828;SDS011;17930;48.592;8.868;2023-06-04T03:19:34;7.97;;;5.10;;
6828;SDS011;17930;48.592;8.868;2023-06-04T03:22:01;8.83;;;5.57;;
6828;SDS011;17930;48.592;8.868;2023-06-04T03:24:30;9.47;;;5.07;;
6828;SDS011;17930;48.592;8.868;2023-06-04T03:26:59;7.57;;;5.50;;
6828;SDS011;17930;48.592;8.868;2023-06-04T03:29:26;7.90;;;5.63;;
6828;SDS011;17930;48.592;8.868;2023-06-04T03:31:52;6.27;;;5.23;;
6828;SDS011;17930;48.592;8.868;2023-06-04T03:34:19;8.57;;;4.83;;
6828;SDS011;17930;48.592;8.868;2023-06-04T03:36:51;9.47;;;5.47;;
6828;SDS011;17930;48.592;8.868;2023-06-04T03:39:18;8.17;;;5.23;;
6828;SDS011;17930;48.592;8.868;2023-06-04T03:41:45;7.50;;;5.43;;
6828;SDS011;17930;48.592;8.868;2023-06-04T03:44:12;6.97;;;5.27;;
6828;SDS011;17930;48.592;8.868;2023-06-04T03:46:40;6.63;;;5.27;;
6828;SDS011;17930;48.592;8.868;2023-06-04T03:49:06;8.67;;;5.30;;
6828;SDS011;17930;48.592;8.868;2023-06-04T03:51:33;7.57;;;5.07;;
6828;SDS011;17930;48.592;8.868;2023-06-04T03:54:03;7.07;;;5.50;;
6828;SDS011;17930;48.592;8.868;2023-06-04T03:56:30;7.27;;;4.97;;
6828;SDS011;17930;48.592;8.868;2023-06-04T03:58:57;7.07;;;5.30;;
6828;SDS011;17930;48.592;8.868;2023-06-04T04:01:23;7.40;;;5.40;;
6828;SDS011;17930;48.592;8.868;2023-06-04T04:03:50;8.50;;;5.57;;
6828;SDS011;17930;48.592;8.868;2023-06-04T04:06:18;6.40;;;4.60;;
6828;SDS011;17930;48.592;8.868;2023-06-04T04:08:45;9.87;;;5.90;;
6828;SDS011;17930;48.592;8.868;2023-06-04T04:11:15;7.13;;;4.97;;
6828;SDS011;17930;48.592;8.868;2023-06-04T04:13:43;9.73;;;5.60;;
6828;SDS011;17930;48.592;8.868;2023-06-04T04:16:11;6.17;;;4.60;;
6828;SDS011;17930;48.592;8.868;2023-06-04T04:18:38;7.10;;;4.80;;
6828;SDS011;17930;48.592;8.868;2023-06-04T04:21:04;8.57;;;5.40;;
6828;SDS011;17930;48.592;8.868;2023-06-04T04:23:32;8.63;;;5.43;;
6828;SDS011;17930;48.592;8.868;2023-06-04T04:25:59;9.90;;;5.30;;
6828;SDS011;17930;48.592;8.868;2023-06-04T04:28:28;8.43;;;5.17;;
6828;SDS011;17930;48.592;8.868;2023-06-04T04:30:55;7.63;;;5.27;;
6828;SDS011;17930;48.592;8.868;2023-06-04T04:33:22;9.87;;;5.23;;
6828;SDS011;17930;48.592;8.868;2023-06-04T04:35:50;8.73;;;4.73;;
6828;SDS011;17930;48.592;8.868;2023-06-04T04:38:19;8.53;;;4.90;;
6828;SDS011;17930;48.592;8.868;2023-06-04T04:40:48;8.83;;;5.30;;
6828;SDS011;17930;48.592;8.868;2023-06-04T04:43:17;6.53;;;4.80;;
6828;SDS011;17930;48.592;8.868;2023-06-04T04:45:55;11.20;;;5.00;;
6828;SDS011;17930;48.592;8.868;2023-06-04T04:48:22;8.27;;;4.63;;
6828;SDS011;17930;48.592;8.868;2023-06-04T04:50:49;8.03;;;4.70;;
6828;SDS011;17930;48.592;8.868;2023-06-04T04:53:16;6.60;;;4.80;;
6828;SDS011;17930;48.592;8.868;2023-06-04T04:55:43;6.90;;;4.77;;
6828;SDS011;17930;48.592;8.868;2023-06-04T04:58:10;8.57;;;4.80;;
6828;SDS011;17930;48.592;8.868;2023-06-04T05:00:37;8.83;;;4.63;;
6828;SDS011;17930;48.592;8.868;2023-06-04T05:03:05;7.30;;;4.67;;
6828;SDS011;17930;48.592;8.868;2023-06-04T05:05:32;7.80;;;4.77;;
6828;SDS011;17930;48.592;8.868;2023-06-04T05:07:59;7.13;;;4.20;;
6828;SDS011;17930;48.592;8.868;2023-06-04T05:10:25;6.43;;;4.30;;
6828;SDS011;17930;48.592;8.868;2023-06-04T05:12:52;7.00;;;4.17;;
6828;SDS011;17930;48.592;8.868;2023-06-04T05:15:19;5.73;;;3.87;;
6828;SDS011;17930;48.592;8.868;2023-06-04T05:17:46;5.43;;;3.70;;
6828;SDS011;17930;48.592;8.868;2023-06-04T05:20:15;6.20;;;3.93;;
6828;SDS011;17930;48.592;8.868;2023-06-04T05:22:41;7.33;;;4.20;;
6828;SDS011;17930;48.592;8.868;2023-06-04T05:25:10;5.23;;;4.23;;
6828;SDS011;17930;48.592;8.868;2023-06-04T05:27:37;7.13;;;4.70;;
6828;SDS011;17930;48.592;8.868;2023-06-04T05:30:06;6.67;;;4.40;;
6828;SDS011;17930;48.592;8.868;2023-06-04T05:32:33;6.97;;;4.47;;
6828;SDS011;17930;48.592;8.868;2023-06-04T05:35:06;8.17;;;4.60;;
6828;SDS011;17930;48.592;8.868;2023-06-04T05:37:36;6.27;;;4.23;;
6828;SDS011;17930;48.592;8.868;2023-06-04T05:40:06;7.43;;;4.37;;
6828;SDS011;17930;48.592;8.868;2023-06-04T05:42:34;6.83;;;4.10;;
6828;SDS011;17930;48.592;8.868;2023-06-04T05:45:01;7.43;;;4.13;;
6828;SDS011;17930;48.592;8.868;2023-06-04T05:47:28;5.80;;;3.80;;
6828;SDS011;17930;48.592;8.868;2023-06-04T05:49:55;9.20;;;4.10;;
6828;SDS011;17930;48.592;8.868;2023-06-04T05:52:22;7.80;;;3.33;;
6828;SDS011;17930;48.592;8.868;2023-06-04T05:54:50;7.63;;;4.27;;
6828;SDS011;17930;48.592;8.868;2023-06-04T05:57:17;6.30;;;3.73;;
6828;SDS011;17930;48.592;8.868;2023-06-04T05:59:44;5.33;;;3.70;;
6828;SDS011;17930;48.592;8.868;2023-06-04T06:02:11;6.33;;;3.77;;
6828;SDS011;17930;48.592;8.868;2023-06-04T06:04:38;6.60;;;3.50;;
6828;SDS011;17930;48.592;8.868;2023-06-04T06:07:05;5.73;;;3.43;;
6828;SDS011;17930;48.592;8.868;2023-06-04T06:09:32;3.77;;;3.00;;
6828;SDS011;17930;48.592;8.868;2023-06-04T06:12:00;6.13;;;3.73;;
6828;SDS011;17930;48.592;8.868;2023-06-04T06:14:27;4.70;;;3.43;;
6828;SDS011;17930;48.592;8.868;2023-06-04T06:16:53;5.47;;;3.03;;
6828;SDS011;17930;48.592;8.868;2023-06-04T06:19:20;6.70;;;3.53;;
6828;SDS011;17930;48.592;8.868;2023-06-04T06:21:47;4.20;;;3.00;;
6828;SDS011;17930;48.592;8.868;2023-06-04T06:24:14;6.80;;;3.30;;
6828;SDS011;17930;48.592;8.868;2023-06-04T06:26:40;5.63;;;3.20;;
6828;SDS011;17930;48.592;8.868;2023-06-04T06:29:09;4.27;;;3.07;;
6828;SDS011;17930;48.592;8.868;2023-06-04T06:31:36;3.57;;;3.10;;
6828;SDS011;17930;48.592;8.868;2023-06-04T06:34:02;5.27;;;3.00;;
6828;SDS011;17930;48.592;8.868;2023-06-04T06:36:29;5.07;;;3.13;;
6828;SDS011;17930;48.592;8.868;2023-06-04T06:38:58;5.00;;;3.30;;
6828;SDS011;17930;48.592;8.868;2023-06-04T06:41:25;3.83;;;2.63;;
6828;SDS011;17930;48.592;8.868;2023-06-04T06:43:52;3.30;;;3.00;;
6828;SDS011;17930;48.592;8.868;2023-06-04T06:46:20;3.50;;;2.70;;
6828;SDS011;17930;48.592;8.868;2023-06-04T06:48:47;7.43;;;3.33;;
6828;SDS011;17930;48.592;8.868;2023-06-04T06:51:14;4.13;;;2.77;;
6828;SDS011;17930;48.592;8.868;2023-06-04T06:53:42;4.17;;;3.17;;
6828;SDS011;17930;48.592;8.868;2023-06-04T06:56:09;4.83;;;2.90;;
6828;SDS011;17930;48.592;8.868;2023-06-04T06:58:36;4.50;;;3.00;;
6828;SDS011;17930;48.592;8.868;2023-06-04T07:01:03;6.27;;;3.80;;
6828;SDS011;17930;48.592;8.868;2023-06-04T07:03:32;5.37;;;3.00;;
6828;SDS011;17930;48.592;8.868;2023-06-04T07:05:59;6.83;;;3.40;;
6828;SDS011;17930;48.592;8.868;2023-06-04T07:08:26;3.73;;;2.73;;
6828;SDS011;17930;48.592;8.868;2023-06-04T07:10:53;3.40;;;2.80;;
6828;SDS011;17930;48.592;8.868;2023-06-04T07:13:20;5.47;;;2.90;;
6828;SDS011;17930;48.592;8.868;2023-06-04T07:15:47;4.43;;;3.27;;
6828;SDS011;17930;48.592;8.868;2023-06-04T07:18:14;4.63;;;2.67;;
6828;SDS011;17930;48.592;8.868;2023-06-04T07:20:42;3.13;;;2.63;;
6828;SDS011;17930;48.592;8.868;2023-06-04T07:23:09;5.17;;;2.80;;
6828;SDS011;17930;48.592;8.868;2023-06-04T07:25:35;4.33;;;3.10;;
6828;SDS011;17930;48.592;8.868;2023-06-04T07:28:02;6.20;;;2.60;;
6828;SDS011;17930;48.592;8.868;2023-06-04T07:30:30;3.90;;;2.63;;
6828;SDS011;17930;48.592;8.868;2023-06-04T07:32:57;3.67;;;3.07;;
6828;SDS011;17930;48.592;8.868;2023-06-04T07:35:24;5.73;;;2.80;;
6828;SDS011;17930;48.592;8.868;2023-06-04T07:37:52;5.70;;;2.97;;
6828;SDS011;17930;48.592;8.868;2023-06-04T07:40:19;4.90;;;3.07;;
6828;SDS011;17930;48.592;8.868;2023-06-04T07:42:46;3.70;;;2.80;;
6828;SDS011;17930;48.592;8.868;2023-06-04T07:45:13;5.07;;;2.70;;
6828;SDS011;17930;48.592;8.868;2023-06-04T07:47:41;4.60;;;2.70;;
6828;SDS011;17930;48.592;8.868;2023-06-04T07:50:08;3.33;;;2.73;;
6828;SDS011;17930;48.592;8.868;2023-06-04T07:52:35;4.80;;;3.17;;
6828;SDS011;17930;48.592;8.868;2023-06-04T07:55:03;3.83;;;2.37;;
6828;SDS011;17930;48.592;8.868;2023-06-04T07:57:31;6.40;;;3.07;;
6828;SDS011;17930;48.592;8.868;2023-06-04T07:59:58;4.07;;;2.90;;
6828;SDS011;17930;48.592;8.868;2023-06-04T08:02:25;5.03;;;2.53;;
6828;SDS011;17930;48.592;8.868;2023-06-04T08:04:52;4.77;;;2.73;;
6828;SDS011;17930;48.592;8.868;2023-06-04T08:07:19;4.50;;;2.90;;
6828;SDS011;17930;48.592;8.868;2023-06-04T08:09:46;4.90;;;2.60;;
6828;SDS011;17930;48.592;8.868;2023-06-04T08:12:14;4.40;;;2.20;;
6828;SDS011;17930;48.592;8.868;2023-06-04T08:14:41;4.37;;;2.50;;
6828;SDS011;17930;48.592;8.868;2023-06-04T08:17:08;4.57;;;2.63;;
6828;SDS011;17930;48.592;8.868;2023-06-04T08:19:35;3.87;;;2.60;;
6828;SDS011;17930;48.592;8.868;2023-06-04T08:22:02;3.43;;;2.67;;
6828;SDS011;17930;48.592;8.868;2023-06-04T08:24:29;4.00;;;2.60;;
6828;SDS011;17930;48.592;8.868;2023-06-04T08:26:56;4.03;;;2.90;;
6828;SDS011;17930;48.592;8.868;2023-06-04T08:29:23;3.00;;;2.47;;
6828;SDS011;17930;48.592;8.868;2023-06-04T08:31:50;3.20;;;2.60;;
6828;SDS011;17930;48.592;8.868;2023-06-04T08:34:17;4.77;;;3.03;;
6828;SDS011;17930;48.592;8.868;2023-06-04T08:36:44;3.03;;;2.43;;
6828;SDS011;17930;48.592;8.868;2023-06-04T08:39:11;5.33;;;2.60;;
6828;SDS011;17930;48.592;8.868;2023-06-04T08:41:40;4.97;;;2.53;;
6828;SDS011;17930;48.592;8.868;2023-06-04T08:44:09;4.47;;;2.73;;
6828;SDS011;17930;48.592;8.868;2023-06-04T08:46:38;4.37;;;2.80;;
6828;SDS011;17930;48.592;8.868;2023-06-04T08:49:06;4.83;;;2.60;;
6828;SDS011;17930;48.592;8.868;2023-06-04T08:51:34;3.93;;;2.37;;
6828;SDS011;17930;48.592;8.868;2023-06-04T08:54:03;4.40;;;3.10;;
6828;SDS011;17930;48.592;8.868;2023-06-04T08:56:31;3.53;;;2.37;;
6828;SDS011;17930;48.592;8.868;2023-06-04T08:58:59;3.57;;;2.67;;
6828;SDS011;17930;48.592;8.868;2023-06-04T09:01:28;5.27;;;2.47;;
6828;SDS011;17930;48.592;8.868;2023-06-04T09:03:57;3.27;;;2.70;;
6828;SDS011;17930;48.592;8.868;2023-06-04T09:06:25;4.10;;;2.87;;
6828;SDS011;17930;48.592;8.868;2023-06-04T09:08:52;7.13;;;2.73;;
6828;SDS011;17930;48.592;8.868;2023-06-04T09:11:23;5.57;;;3.00;;
6828;SDS011;17930;48.592;8.868;2023-06-04T09:13:57;3.47;;;2.60;;
6828;SDS011;17930;48.592;8.868;2023-06-04T09:16:27;3.50;;;2.60;;
6828;SDS011;17930;48.592;8.868;2023-06-04T09:19:02;4.13;;;2.60;;
6828;SDS011;17930;48.592;8.868;2023-06-04T09:21:28;3.03;;;2.70;;
6828;SDS011;17930;48.592;8.868;2023-06-04T09:23:55;5.20;;;2.77;;
6828;SDS011;17930;48.592;8.868;2023-06-04T09:26:24;3.50;;;2.70;;
6828;SDS011;17930;48.592;8.868;2023-06-04T09:28:51;3.00;;;2.70;;
6828;SDS011;17930;48.592;8.868;2023-06-04T09:31:21;4.43;;;2.60;;
6828;SDS011;17930;48.592;8.868;2023-06-04T09:33:52;5.20;;;2.77;;
6828;SDS011;17930;48.592;8.868;2023-06-04T09:36:20;4.57;;;2.97;;
6828;SDS011;17930;48.592;8.868;2023-06-04T09:38:46;3.70;;;2.70;;
6828;SDS011;17930;48.592;8.868;2023-06-04T09:41:13;5.13;;;3.03;;
6828;SDS011;17930;48.592;8.868;2023-06-04T09:43:41;4.30;;;2.73;;
6828;SDS011;17930;48.592;8.868;2023-06-04T09:46:09;4.77;;;2.97;;
6828;SDS011;17930;48.592;8.868;2023-06-04T09:48:37;3.40;;;2.97;;
6828;SDS011;17930;48.592;8.868;2023-06-04T09:51:09;3.87;;;2.87;;
6828;SDS011;17930;48.592;8.868;2023-06-04T09:53:38;6.00;;;3.20;;
6828;SDS011;17930;48.592;8.868;2023-06-04T09:56:06;6.87;;;3.00;;
6828;SDS011;17930;48.592;8.868;2023-06-04T09:58:34;4.90;;;3.07;;
6828;SDS011;17930;48.592;8.868;2023-06-04T10:01:02;4.20;;;2.90;;
6828;SDS011;17930;48.592;8.868;2023-06-04T10:03:30;4.47;;;2.67;;
6828;SDS011;17930;48.592;8.868;2023-06-04T10:05:59;4.07;;;2.90;;
6828;SDS011;17930;48.592;8.868;2023-06-04T10:08:27;3.43;;;2.77;;
6828;SDS011;17930;48.592;8.868;2023-06-04T10:10:58;4.43;;;2.87;;
6828;SDS011;17930;48.592;8.868;2023-06-04T10:13:27;4.93;;;3.00;;
6828;SDS011;17930;48.592;8.868;2023-06-04T10:15:56;5.97;;;3.30;;
6828;SDS011;17930;48.592;8.868;2023-06-04T10:18:24;3.77;;;2.97;;
6828;SDS011;17930;48.592;8.868;2023-06-04T10:20:54;6.53;;;3.00;;
6828;SDS011;17930;48.592;8.868;2023-06-04T10:23:22;4.53;;;3.00;;
6828;SDS011;17930;48.592;8.868;2023-06-04T10:25:49;6.90;;;3.60;;
6828;SDS011;17930;48.592;8.868;2023-06-04T10:28:23;5.73;;;3.03;;
6828;SDS011;17930;48.592;8.868;2023-06-04T10:30:50;4.70;;;2.63;;
6828;SDS011;17930;48.592;8.868;2023-06-04T10:33:17;5.63;;;3.10;;
6828;SDS011;17930;48.592;8.868;2023-06-04T10:35:49;7.03;;;3.00;;
6828;SDS011;17930;48.592;8.868;2023-06-04T10:38:17;3.13;;;2.83;;
6828;SDS011;17930;48.592;8.868;2023-06-04T10:40:45;4.37;;;3.33;;
6828;SDS011;17930;48.592;8.868;2023-06-04T10:43:13;3.40;;;2.83;;
6828;SDS011;17930;48.592;8.868;2023-06-04T10:45:43;4.63;;;3.50;;
6828;SDS011;17930;48.592;8.868;2023-06-04T10:48:11;3.83;;;3.13;;
6828;SDS011;17930;48.592;8.868;2023-06-04T10:50:49;4.03;;;3.40;;
6828;SDS011;17930;48.592;8.868;2023-06-04T10:53:17;4.07;;;3.33;;
6828;SDS011;17930;48.592;8.868;2023-06-04T10:55:45;3.27;;;2.93;;
6828;SDS011;17930;48.592;8.868;2023-06-04T10:58:13;3.97;;;3.47;;
6828;SDS011;17930;48.592;8.868;2023-06-04T11:00:41;4.33;;;3.13;;
6828;SDS011;17930;48.592;8.868;2023-06-04T11:03:12;3.80;;;3.40;;
6828;SDS011;17930;48.592;8.868;2023-06-04T11:05:39;7.27;;;3.30;;
6828;SDS011;17930;48.592;8.868;2023-06-04T11:08:07;4.27;;;3.10;;
6828;SDS011;17930;48.592;8.868;2023-06-04T11:10:36;4.30;;;3.53;;
6828;SDS011;17930;48.592;8.868;2023-06-04T11:13:03;6.00;;;3.40;;
6828;SDS011;17930;48.592;8.868;2023-06-04T11:15:37;6.53;;;3.57;;
6828;SDS011;17930;48.592;8.868;2023-06-04T11:18:07;3.90;;;3.53;;
6828;SDS011;17930;48.592;8.868;2023-06-04T11:20:33;5.20;;;3.47;;
6828;SDS011;17930;48.592;8.868;2023-06-04T11:23:00;7.70;;;3.70;;
6828;SDS011;17930;48.592;8.868;2023-06-04T11:25:29;3.80;;;3.40;;
6828;SDS011;17930;48.592;8.868;2023-06-04T11:27:58;4.87;;;3.27;;
6828;SDS011;17930;48.592;8.868;2023-06-04T11:30:26;7.33;;;3.73;;
6828;SDS011;17930;48.592;8.868;2023-06-04T11:33:00;5.23;;;3.43;;
6828;SDS011;17930;48.592;8.868;2023-06-04T11:35:29;5.33;;;3.40;;
6828;SDS011;17930;48.592;8.868;2023-06-04T11:37:57;4.93;;;3.33;;
6828;SDS011;17930;48.592;8.868;2023-06-04T11:40:25;3.93;;;3.50;;
6828;SDS011;17930;48.592;8.868;2023-06-04T11:42:52;3.43;;;3.13;;
6828;SDS011;17930;48.592;8.868;2023-06-04T11:45:21;4.50;;;3.00;;
6828;SDS011;17930;48.592;8.868;2023-06-04T11:47:48;5.43;;;3.77;;
6828;SDS011;17930;48.592;8.868;2023-06-04T11:50:17;5.77;;;3.20;;
6828;SDS011;17930;48.592;8.868;2023-06-04T11:52:45;4.67;;;3.40;;
6828;SDS011;17930;48.592;8.868;2023-06-04T11:55:14;5.37;;;3.40;;
6828;SDS011;17930;48.592;8.868;2023-06-04T11:57:42;4.93;;;3.57;;
6828;SDS011;17930;48.592;8.868;2023-06-04T12:00:10;6.53;;;3.83;;
6828;SDS011;17930;48.592;8.868;2023-06-04T12:02:39;5.27;;;3.53;;
6828;SDS011;17930;48.592;8.868;2023-06-04T12:05:15;4.13;;;3.30;;
6828;SDS011;17930;48.592;8.868;2023-06-04T12:07:46;4.27;;;3.00;;
6828;SDS011;17930;48.592;8.868;2023-06-04T12:10:16;4.80;;;3.20;;
6828;SDS011;17930;48.592;8.868;2023-06-04T12:12:43;4.43;;;3.13;;
6828;SDS011;17930;48.592;8.868;2023-06-04T12:15:10;3.83;;;3.37;;
6828;SDS011;17930;48.592;8.868;2023-06-04T12:17:48;4.20;;;3.13;;
6828;SDS011;17930;48.592;8.868;2023-06-04T12:20:16;5.83;;;3.17;;
6828;SDS011;17930;48.592;8.868;2023-06-04T12:22:46;6.13;;;3.17;;
6828;SDS011;17930;48.592;8.868;2023-06-04T12:25:23;5.10;;;3.60;;
6828;SDS011;17930;48.592;8.868;2023-06-04T12:27:51;5.23;;;3.10;;
6828;SDS011;17930;48.592;8.868;2023-06-04T12:30:18;4.47;;;3.37;;
6828;SDS011;17930;48.592;8.868;2023-06-04T12:32:45;4.23;;;3.37;;
6828;SDS011;17930;48.592;8.868;2023-06-04T12:35:12;4.47;;;3.73;;
6828;SDS011;17930;48.592;8.868;2023-06-04T12:37:39;4.70;;;3.60;;
6828;SDS011;17930;48.592;8.868;2023-06-04T12:40:08;4.00;;;3.57;;
6828;SDS011;17930;48.592;8.868;2023-06-04T12:42:36;5.03;;;3.37;;
6828;SDS011;17930;48.592;8.868;2023-06-04T12:45:03;3.90;;;3.17;;
6828;SDS011;17930;48.592;8.868;2023-06-04T12:47:31;3.80;;;3.40;;
6828;SDS011;17930;48.592;8.868;2023-06-04T12:49:58;4.10;;;3.20;;
6828;SDS011;17930;48.592;8.868;2023-06-04T12:52:25;5.03;;;3.20;;
6828;SDS011;17930;48.592;8.868;2023-06-04T12:54:52;3.40;;;3.10;;
6828;SDS011;17930;48.592;8.868;2023-06-04T12:57:21;5.40;;;3.23;;
6828;SDS011;17930;48.592;8.868;2023-06-04T12:59:48;5.00;;;3.13;;
6828;SDS011;17930;48.592;8.868;2023-06-04T13:02:14;4.43;;;3.17;;
6828;SDS011;17930;48.592;8.868;2023-06-04T13:04:41;4.63;;;3.13;;
6828;SDS011;17930;48.592;8.868;2023-06-04T13:07:09;6.37;;;2.83;;
6828;SDS011;17930;48.592;8.868;2023-06-04T13:09:37;5.37;;;3.10;;
6828;SDS011;17930;48.592;8.868;2023-06-04T13:12:04;3.10;;;2.80;;
6828;SDS011;17930;48.592;8.868;2023-06-04T13:14:36;4.83;;;3.43;;
6828;SDS011;17930;48.592;8.868;2023-06-04T13:17:02;4.20;;;3.27;;
6828;SDS011;17930;48.592;8.868;2023-06-04T13:19:30;5.60;;;3.23;;
6828;SDS011;17930;48.592;8.868;2023-06-04T13:21:56;3.73;;;3.20;;
6828;SDS011;17930;48.592;8.868;2023-06-04T13:24:23;4.83;;;3.00;;
6828;SDS011;17930;48.592;8.868;2023-06-04T13:26:51;3.63;;;2.90;;
6828;SDS011;17930;48.592;8.868;2023-06-04T13:29:18;5.00;;;3.20;;
6828;SDS011;17930;48.592;8.868;2023-06-04T13:31:49;4.63;;;3.03;;
6828;SDS011;17930;48.592;8.868;2023-06-04T13:34:16;5.33;;;3.70;;
6828;SDS011;17930;48.592;8.868;2023-06-04T13:36:43;3.53;;;3.20;;
6828;SDS011;17930;48.592;8.868;2023-06-04T13:39:09;3.40;;;3.07;;
6828;SDS011;17930;48.592;8.868;2023-06-04T13:41:37;4.77;;;3.07;;
6828;SDS011;17930;48.592;8.868;2023-06-04T13:44:04;3.57;;;3.10;;
6828;SDS011;17930;48.592;8.868;2023-06-04T13:46:31;4.30;;;3.20;;
6828;SDS011;17930;48.592;8.868;2023-06-04T13:49:00;5.77;;;3.73;;
6828;SDS011;17930;48.592;8.868;2023-06-04T13:51:27;5.00;;;3.27;;
6828;SDS011;17930;48.592;8.868;2023-06-04T13:53:55;4.63;;;3.00;;
6828;SDS011;17930;48.592;8.868;2023-06-04T13:56:22;4.67;;;3.23;;
6828;SDS011;17930;48.592;8.868;2023-06-04T13:58:49;3.83;;;3.10;;
6828;SDS011;17930;48.592;8.868;2023-06-04T14:01:16;3.83;;;3.10;;
6828;SDS011;17930;48.592;8.868;2023-06-04T14:03:43;4.97;;;3.30;;
6828;SDS011;17930;48.592;8.868;2023-06-04T14:06:11;4.33;;;3.40;;
6828;SDS011;17930;48.592;8.868;2023-06-04T14:11:04;4.50;;;3.30;;
6828;SDS011;17930;48.592;8.868;2023-06-04T14:13:31;3.63;;;3.20;;
6828;SDS011;17930;48.592;8.868;2023-06-04T14:15:58;4.67;;;2.90;;
6828;SDS011;17930;48.592;8.868;2023-06-04T14:18:25;4.27;;;3.33;;
6828;SDS011;17930;48.592;8.868;2023-06-04T14:20:52;4.37;;;3.50;;
6828;SDS011;17930;48.592;8.868;2023-06-04T14:23:20;3.87;;;3.00;;
6828;SDS011;17930;48.592;8.868;2023-06-04T14:25:47;5.40;;;3.40;;
6828;SDS011;17930;48.592;8.868;2023-06-04T14:28:14;3.90;;;2.83;;
6828;SDS011;17930;48.592;8.868;2023-06-04T14:30:43;3.27;;;2.97;;
6828;SDS011;17930;48.592;8.868;2023-06-04T14:33:10;2.87;;;2.57;;
6828;SDS011;17930;48.592;8.868;2023-06-04T14:35:37;5.90;;;3.03;;
6828;SDS011;17930;48.592;8.868;2023-06-04T14:38:04;5.37;;;2.70;;
6828;SDS011;17930;48.592;8.868;2023-06-04T14:40:32;3.43;;;2.40;;
6828;SDS011;17930;48.592;8.868;2023-06-04T14:43:00;4.30;;;2.93;;
6828;SDS011;17930;48.592;8.868;2023-06-04T14:45:27;4.73;;;2.67;;
6828;SDS011;17930;48.592;8.868;2023-06-04T14:47:54;3.47;;;2.50;;
6828;SDS011;17930;48.592;8.868;2023-06-04T14:50:21;7.47;;;3.10;;
6828;SDS011;17930;48.592;8.868;2023-06-04T14:52:49;4.13;;;3.20;;
6828;SDS011;17930;48.592;8.868;2023-06-04T14:55:16;3.97;;;3.00;;
6828;SDS011;17930;48.592;8.868;2023-06-04T14:57:45;3.87;;;2.60;;
6828;SDS011;17930;48.592;8.868;2023-06-04T15:00:12;5.17;;;3.10;;
6828;SDS011;17930;48.592;8.868;2023-06-04T15:02:39;3.47;;;3.00;;
6828;SDS011;17930;48.592;8.868;2023-06-04T15:05:07;4.33;;;2.90;;
6828;SDS011;17930;48.592;8.868;2023-06-04T15:07:33;4.80;;;2.60;;